createdAt,value
2023-02-23T00:04:55.045Z,101169.44
2023-02-23T00:09:58.786Z,101169.31
2023-02-23T00:15:04.048Z,101172.78
2023-02-23T00:20:11.505Z,101173.69
2023-02-23T00:25:15.341Z,101178.84
2023-02-23T00:30:21.582Z,101166.47
2023-02-23T00:35:25.379Z,101169.06
2023-02-23T00:40:30.041Z,101173.16
2023-02-23T00:45:36.646Z,101168.63
2023-02-23T00:50:41.639Z,101165.16
2023-02-23T00:55:45.373Z,101158.13
2023-02-23T01:00:50.669Z,101167.34
2023-02-23T01:06:00.532Z,101165.22
2023-02-23T01:11:09.483Z,101172.22
2023-02-23T01:16:16.916Z,101179.87
2023-02-23T01:21:24.100Z,101171.28
2023-02-23T01:26:29.950Z,101173.66
2023-02-23T01:31:36.311Z,101174.62
2023-02-23T01:36:41.532Z,101178.09
2023-02-23T01:41:46.179Z,101175.63
2023-02-23T01:46:53.359Z,101185.66
2023-02-23T01:52:03.013Z,101189.81
2023-02-23T01:57:09.004Z,101195.78
2023-02-23T02:02:18.890Z,101192.22
2023-02-23T02:07:28.167Z,101198.97
2023-02-23T02:12:32.070Z,101202.25
2023-02-23T02:17:45.097Z,101196.91
2023-02-23T02:23:17.513Z,101195.31
2023-02-23T02:28:39.481Z,101193.53
2023-02-23T02:34:07.010Z,101196.03
2023-02-23T02:39:24.099Z,101196.75
2023-02-23T02:44:36.188Z,101189.00
2023-02-23T02:49:51.527Z,101194.94
2023-02-23T02:55:04.168Z,101191.38
2023-02-23T03:00:27.084Z,101185.34
2023-02-23T03:05:58.631Z,101185.34
2023-02-23T03:11:25.926Z,101188.81
2023-02-23T03:16:55.987Z,101189.44
2023-02-23T03:22:26.114Z,101192.78
2023-02-23T03:28:01.367Z,101201.22
2023-02-23T03:33:30.315Z,101207.97
2023-02-23T03:38:57.157Z,101203.72
2023-02-23T03:44:26.335Z,101210.47
2023-02-23T03:49:51.882Z,101208.88
2023-02-23T03:55:18.617Z,101207.88
2023-02-23T04:00:47.488Z,101208.88
2023-02-23T04:06:11.944Z,101214.03
2023-02-23T04:11:38.522Z,101209.53
2023-02-23T04:16:43.641Z,101215.50
2023-02-23T04:21:47.359Z,101226.22
2023-02-23T04:26:51.132Z,101228.00
2023-02-23T04:31:56.336Z,101233.84
2023-02-23T04:37:00.207Z,101222.66
2023-02-23T04:42:04.243Z,101224.44
2023-02-23T04:47:09.420Z,101232.16
2023-02-23T04:52:13.435Z,101238.03
2023-02-23T04:57:17.188Z,101231.00
2023-02-23T05:02:22.346Z,101240.37
2023-02-23T05:07:26.157Z,101237.72
2023-02-23T05:12:30.742Z,101234.16
2023-02-23T05:17:35.781Z,101248.72
2023-02-23T05:22:39.539Z,101245.34
2023-02-23T05:27:43.364Z,101246.94
2023-02-23T05:32:48.445Z,101255.47
2023-02-23T05:37:52.185Z,101266.63
2023-02-23T05:43:00.113Z,101266.63
2023-02-23T05:48:05.419Z,101259.78
2023-02-23T05:53:10.401Z,101267.44
2023-02-23T05:58:14.065Z,101265.75
2023-02-23T06:03:19.478Z,101269.22
2023-02-23T06:08:23.479Z,101263.87
2023-02-23T06:13:28.515Z,101268.13
2023-02-23T06:18:33.583Z,101262.78
2023-02-23T06:23:37.823Z,101267.84
2023-02-23T06:28:41.549Z,101276.28
2023-02-23T06:33:46.594Z,101277.94
2023-02-23T06:38:50.389Z,101293.28
2023-02-23T06:43:54.153Z,101294.97
2023-02-23T06:48:59.769Z,101297.56
2023-02-23T06:54:03.432Z,101307.53
2023-02-23T06:59:07.241Z,101313.28
2023-02-23T07:04:14.257Z,101329.41
2023-02-23T07:09:19.363Z,101328.53
2023-02-23T07:14:26.839Z,101332.84
2023-02-23T07:19:32.510Z,101338.13
2023-02-23T07:24:36.371Z,101352.06
2023-02-23T07:29:40.151Z,101360.88
2023-02-23T07:34:45.915Z,101364.53
2023-02-23T07:39:49.650Z,101368.41
2023-02-23T07:44:53.444Z,101372.25
2023-02-23T07:50:00.593Z,101382.84
2023-02-23T07:55:05.078Z,101385.69
2023-02-23T08:00:10.237Z,101400.66
2023-02-23T08:05:17.278Z,101402.56
2023-02-23T08:10:21.170Z,101401.16
2023-02-23T08:15:25.087Z,101406.50
2023-02-23T08:20:30.863Z,101418.66
2023-02-23T08:25:34.567Z,101424.81
2023-02-23T08:30:39.632Z,101425.22
2023-02-23T08:35:45.200Z,101429.87
2023-02-23T08:40:48.960Z,101439.66
2023-02-23T08:45:52.842Z,101435.78
2023-02-23T08:51:01.417Z,101439.34
2023-02-23T08:56:07.291Z,101453.31
2023-02-23T09:01:18.559Z,101452.81
2023-02-23T09:06:26.334Z,101458.75
2023-02-23T09:11:30.022Z,101461.41
2023-02-23T09:16:34.023Z,101462.78
2023-02-23T09:21:39.048Z,101479.53
2023-02-23T09:26:45.621Z,101484.81
2023-02-23T09:31:51.290Z,101479.31
2023-02-23T09:36:56.506Z,101480.53
2023-02-23T09:42:12.208Z,101490.84
2023-02-23T09:47:29.515Z,101486.78
2023-02-23T09:52:40.563Z,101486.84
2023-02-23T09:57:48.015Z,101490.97
2023-02-23T10:03:17.804Z,101501.66
2023-02-23T10:08:45.690Z,101496.59
2023-02-23T10:14:00.402Z,101487.44
2023-02-23T10:19:13.715Z,101501.63
2023-02-23T10:24:25.357Z,101497.56
2023-02-23T10:29:33.376Z,101480.16
2023-02-23T10:34:37.861Z,101488.06
2023-02-23T10:39:43.145Z,101501.34
2023-02-23T10:44:48.016Z,101510.75
2023-02-23T10:49:54.718Z,101499.09
2023-02-23T10:55:00.559Z,101506.94
2023-02-23T11:00:30.767Z,101512.38
2023-02-23T11:05:38.012Z,101497.06
2023-02-23T11:10:43.544Z,101502.56
2023-02-23T11:15:50.929Z,101505.56
2023-02-23T11:20:55.810Z,101507.41
2023-02-23T11:26:02.948Z,101505.94
2023-02-23T11:31:17.070Z,101501.91
2023-02-23T11:36:29.579Z,101496.69
2023-02-23T11:41:37.183Z,101496.94
2023-02-23T11:46:45.806Z,101498.56
2023-02-23T11:51:51.773Z,101492.66
2023-02-23T11:56:58.040Z,101497.50
2023-02-23T12:02:07.916Z,101502.69
2023-02-23T12:07:37.390Z,101489.34
2023-02-23T12:12:49.869Z,101482.66
2023-02-23T12:17:59.231Z,101483.16
2023-02-23T12:23:07.194Z,101473.81
2023-02-23T12:28:19.782Z,101477.34
2023-02-23T12:33:34.081Z,101469.59
2023-02-23T12:38:49.392Z,101468.31
2023-02-23T12:43:57.748Z,101460.25
2023-02-23T12:49:07.680Z,101464.50
2023-02-23T12:54:13.696Z,101468.56
2023-02-23T12:59:33.071Z,101472.81
2023-02-23T13:04:59.911Z,101472.75
2023-02-23T13:10:13.430Z,101474.66
2023-02-23T13:15:27.986Z,101483.84
2023-02-23T13:20:36.845Z,101492.16
2023-02-23T13:25:49.473Z,101488.59
2023-02-23T13:30:55.101Z,101487.34
2023-02-23T13:36:00.092Z,101485.38
2023-02-23T13:41:13.296Z,101489.31
2023-02-23T13:46:29.688Z,101486.62
2023-02-23T13:51:39.304Z,101486.53
2023-02-23T13:56:45.954Z,101478.13
2023-02-23T14:01:54.136Z,101486.56
2023-02-23T14:07:01.376Z,101491.00
2023-02-23T14:12:17.014Z,101488.06
2023-02-23T14:17:59.444Z,101493.94
2023-02-23T14:23:49.706Z,101499.72
2023-02-23T14:29:17.987Z,101493.41
2023-02-23T14:34:23.885Z,101495.03
2023-02-23T14:39:29.882Z,101493.34
2023-02-23T14:44:41.316Z,101495.19
2023-02-23T14:49:50.254Z,101500.97
2023-02-23T14:55:08.048Z,101494.37
2023-02-23T15:00:23.027Z,101480.22
2023-02-23T15:05:30.831Z,101483.12
2023-02-23T15:10:37.978Z,101488.66
2023-02-23T15:15:45.420Z,101480.75
2023-02-23T15:20:51.483Z,101488.03
2023-02-23T15:25:55.379Z,101488.28
2023-02-23T15:31:04.348Z,101485.72
2023-02-23T15:36:15.381Z,101492.75
2023-02-23T15:41:26.728Z,101489.91
2023-02-23T15:46:32.710Z,101491.88
2023-02-23T15:51:48.613Z,101498.56
2023-02-23T15:56:57.214Z,101499.91
2023-02-23T16:02:03.950Z,101498.13
2023-02-23T16:07:16.254Z,101498.84
2023-02-23T16:12:23.989Z,101514.97
2023-02-23T16:17:33.748Z,101506.03
2023-02-23T16:22:40.792Z,101512.56
2023-02-23T16:27:46.775Z,101504.53
2023-02-23T16:33:03.021Z,101505.16
2023-02-23T16:38:13.817Z,101504.00
2023-02-23T16:43:17.910Z,101513.25
2023-02-23T16:48:22.941Z,101507.13
2023-02-23T16:53:28.122Z,101511.28
2023-02-23T16:58:36.020Z,101511.91
2023-02-23T17:03:47.329Z,101512.25
2023-02-23T17:08:58.270Z,101515.53
2023-02-23T17:14:02.348Z,101520.50
2023-02-23T17:19:07.289Z,101516.94
2023-02-23T17:24:12.446Z,101523.78
2023-02-23T17:29:17.018Z,101520.12
2023-02-23T17:34:20.788Z,101527.78
2023-02-23T17:39:28.038Z,101523.31
2023-02-23T17:44:32.042Z,101523.62
2023-02-23T17:49:35.816Z,101543.91
2023-02-23T17:54:40.884Z,101542.56
2023-02-23T17:59:44.643Z,101539.81
2023-02-23T18:04:48.846Z,101545.34
2023-02-23T18:09:53.959Z,101555.69
2023-02-23T18:14:57.937Z,101568.38
2023-02-23T18:20:01.767Z,101569.53
2023-02-23T18:25:08.284Z,101574.69
2023-02-23T18:30:13.406Z,101576.78
2023-02-23T18:35:17.299Z,101577.56
2023-02-23T18:40:23.885Z,101593.13
2023-02-23T18:45:28.358Z,101601.94
2023-02-23T18:50:32.170Z,101598.34
2023-02-23T18:55:39.408Z,101606.94
2023-02-23T19:00:44.379Z,101608.91
2023-02-23T19:05:52.941Z,101608.41
2023-02-23T19:10:58.362Z,101623.31
2023-02-23T19:16:04.499Z,101623.81
2023-02-23T19:21:08.381Z,101632.94
2023-02-23T19:26:13.531Z,101629.59
2023-02-23T19:31:21.012Z,101632.09
2023-02-23T19:36:30.569Z,101635.38
2023-02-23T19:41:35.682Z,101631.91
2023-02-23T19:46:40.210Z,101626.87
2023-02-23T19:51:44.382Z,101631.25
2023-02-23T19:56:50.340Z,101626.09
2023-02-23T20:01:54.295Z,101627.53
2023-02-23T20:06:58.239Z,101613.69
2023-02-23T20:12:03.300Z,101619.81
2023-02-23T20:17:07.064Z,101616.59
2023-02-23T20:22:10.769Z,101620.78
2023-02-23T20:27:15.919Z,101611.28
2023-02-23T20:32:19.751Z,101609.63
2023-02-23T20:37:23.580Z,101621.50
2023-02-23T20:42:29.175Z,101618.25
2023-02-23T20:47:33.490Z,101625.19
2023-02-23T20:52:37.509Z,101615.56
2023-02-23T20:57:42.534Z,101607.41
2023-02-23T21:02:46.267Z,101609.28
2023-02-23T21:07:50.590Z,101619.25
2023-02-23T21:12:55.953Z,101619.28
2023-02-23T21:18:00.128Z,101609.34
2023-02-23T21:23:04.155Z,101600.84
2023-02-23T21:28:09.158Z,101602.19
2023-02-23T21:33:13.031Z,101600.69
2023-02-23T21:38:16.801Z,101598.22
2023-02-23T21:43:23.105Z,101604.66
2023-02-23T21:48:29.458Z,101600.72
2023-02-23T21:53:33.161Z,101599.09
2023-02-23T21:58:38.903Z,101597.72
2023-02-23T22:03:45.022Z,101612.03
2023-02-23T22:08:50.624Z,101614.13
2023-02-23T22:13:59.003Z,101607.50
2023-02-23T22:19:04.301Z,101616.72
2023-02-23T22:24:09.612Z,101616.63
2023-02-23T22:29:14.837Z,101606.78
2023-02-23T22:34:19.283Z,101609.22
2023-02-23T22:39:23.020Z,101606.19
2023-02-23T22:44:28.048Z,101600.69
2023-02-23T22:49:31.800Z,101603.25
2023-02-23T22:54:37.253Z,101606.06
2023-02-23T22:59:54.365Z,101600.16
2023-02-23T23:04:58.156Z,101586.63
2023-02-23T23:10:05.408Z,101589.75
2023-02-23T23:15:14.847Z,101594.50
2023-02-23T23:20:23.185Z,101591.81
2023-02-23T23:25:28.892Z,101583.97
2023-02-23T23:30:35.217Z,101577.22
2023-02-23T23:35:38.968Z,101572.09
2023-02-23T23:40:46.896Z,101554.72
2023-02-23T23:45:52.195Z,101559.59
2023-02-23T23:50:56.554Z,101554.06
2023-02-23T23:56:05.191Z,101539.16
